Terminal Aerodrome Forecast
Issued by NWS Wilmington, OH

Home | Current Version | Previous Version | Text Only | Print | Product List | Glossary On
Versions: 1 2 3 4 5 6 7 8 9 10 11 12 13 14 15
000
FTUS41 KILN 240500
TAFCMH
TAF
KCMH 240524Z 2406/2506 11004KT P6SM SCT250
     FM241400 15008KT P6SM FEW050 BKN200
     FM241700 19010KT P6SM SCT100 BKN200
     FM242300 15007KT P6SM BKN200=

USA.gov is the U.S. government's official web portal to all federal, state and local government web resources and services.